sensor_id;sensor_type;location;lat;lon;timestamp;P1;durP1;ratioP1;P2;durP2;ratioP2
69953;SDS011;57276;51.364;12.376;2023-03-11T00:03:50;4.30;;;1.43;;
69953;SDS011;57276;51.364;12.376;2023-03-11T00:09:52;3.75;;;1.88;;
69953;SDS011;57276;51.364;12.376;2023-03-11T00:15:54;3.50;;;1.40;;
69953;SDS011;57276;51.364;12.376;2023-03-11T00:22:00;3.35;;;1.27;;
69953;SDS011;57276;51.364;12.376;2023-03-11T00:28:02;3.33;;;1.23;;
69953;SDS011;57276;51.364;12.376;2023-03-11T00:34:04;3.80;;;1.50;;
69953;SDS011;57276;51.364;12.376;2023-03-11T00:40:06;4.80;;;2.30;;
69953;SDS011;57276;51.364;12.376;2023-03-11T00:46:11;4.97;;;2.00;;
69953;SDS011;57276;51.364;12.376;2023-03-11T00:52:12;3.80;;;1.83;;
69953;SDS011;57276;51.364;12.376;2023-03-11T00:58:14;6.88;;;2.72;;
69953;SDS011;57276;51.364;12.376;2023-03-11T01:04:25;6.20;;;2.93;;
69953;SDS011;57276;51.364;12.376;2023-03-11T01:10:28;7.72;;;2.78;;
69953;SDS011;57276;51.364;12.376;2023-03-11T01:16:30;9.03;;;3.67;;
69953;SDS011;57276;51.364;12.376;2023-03-11T01:22:31;7.40;;;3.17;;
69953;SDS011;57276;51.364;12.376;2023-03-11T01:28:33;8.43;;;3.80;;
69953;SDS011;57276;51.364;12.376;2023-03-11T01:34:34;9.00;;;3.93;;
69953;SDS011;57276;51.364;12.376;2023-03-11T01:40:38;6.22;;;3.08;;
69953;SDS011;57276;51.364;12.376;2023-03-11T01:52:57;8.90;;;3.92;;
69953;SDS011;57276;51.364;12.376;2023-03-11T01:58:59;9.55;;;4.25;;
69953;SDS011;57276;51.364;12.376;2023-03-11T02:05:01;10.30;;;3.80;;
69953;SDS011;57276;51.364;12.376;2023-03-11T02:11:04;9.05;;;4.30;;
69953;SDS011;57276;51.364;12.376;2023-03-11T02:17:07;10.57;;;4.13;;
69953;SDS011;57276;51.364;12.376;2023-03-11T02:23:09;9.85;;;4.65;;
69953;SDS011;57276;51.364;12.376;2023-03-11T02:29:12;11.40;;;4.93;;
69953;SDS011;57276;51.364;12.376;2023-03-11T02:35:14;11.37;;;5.10;;
69953;SDS011;57276;51.364;12.376;2023-03-11T02:41:17;9.52;;;4.65;;
69953;SDS011;57276;51.364;12.376;2023-03-11T02:47:18;10.57;;;3.83;;
69953;SDS011;57276;51.364;12.376;2023-03-11T02:53:20;9.40;;;4.05;;
69953;SDS011;57276;51.364;12.376;2023-03-11T02:59:28;10.48;;;4.38;;
69953;SDS011;57276;51.364;12.376;2023-03-11T03:05:57;9.43;;;3.77;;
69953;SDS011;57276;51.364;12.376;2023-03-11T03:12:00;10.55;;;4.85;;
69953;SDS011;57276;51.364;12.376;2023-03-11T03:18:03;12.40;;;5.67;;
69953;SDS011;57276;51.364;12.376;2023-03-11T03:24:05;13.27;;;5.95;;
69953;SDS011;57276;51.364;12.376;2023-03-11T03:30:08;12.15;;;4.95;;
69953;SDS011;57276;51.364;12.376;2023-03-11T03:36:12;12.50;;;5.03;;
69953;SDS011;57276;51.364;12.376;2023-03-11T03:42:17;12.45;;;5.45;;
69953;SDS011;57276;51.364;12.376;2023-03-11T03:48:19;12.27;;;5.50;;
69953;SDS011;57276;51.364;12.376;2023-03-11T03:54:21;13.20;;;5.40;;
69953;SDS011;57276;51.364;12.376;2023-03-11T04:00:22;14.77;;;6.82;;
69953;SDS011;57276;51.364;12.376;2023-03-11T04:06:30;14.83;;;5.93;;
69953;SDS011;57276;51.364;12.376;2023-03-11T04:12:36;14.50;;;5.97;;
69953;SDS011;57276;51.364;12.376;2023-03-11T04:18:40;11.77;;;5.10;;
69953;SDS011;57276;51.364;12.376;2023-03-11T04:24:44;13.30;;;5.28;;
69953;SDS011;57276;51.364;12.376;2023-03-11T04:30:46;15.05;;;6.00;;
69953;SDS011;57276;51.364;12.376;2023-03-11T04:36:50;12.30;;;4.93;;
69953;SDS011;57276;51.364;12.376;2023-03-11T04:42:54;10.40;;;4.50;;
69953;SDS011;57276;51.364;12.376;2023-03-11T04:48:55;12.53;;;4.40;;
69953;SDS011;57276;51.364;12.376;2023-03-11T04:54:58;9.98;;;3.72;;
69953;SDS011;57276;51.364;12.376;2023-03-11T05:00:59;10.27;;;4.53;;
69953;SDS011;57276;51.364;12.376;2023-03-11T05:07:01;16.13;;;5.97;;
69953;SDS011;57276;51.364;12.376;2023-03-11T05:13:04;12.00;;;4.95;;
69953;SDS011;57276;51.364;12.376;2023-03-11T05:19:09;14.80;;;6.27;;
69953;SDS011;57276;51.364;12.376;2023-03-11T05:25:30;16.80;;;6.63;;
69953;SDS011;57276;51.364;12.376;2023-03-11T05:31:32;17.52;;;6.80;;
69953;SDS011;57276;51.364;12.376;2023-03-11T05:37:36;16.13;;;5.43;;
69953;SDS011;57276;51.364;12.376;2023-03-11T05:43:40;18.23;;;5.88;;
69953;SDS011;57276;51.364;12.376;2023-03-11T05:49:41;14.33;;;6.03;;
69953;SDS011;57276;51.364;12.376;2023-03-11T05:55:43;15.65;;;5.90;;
69953;SDS011;57276;51.364;12.376;2023-03-11T06:01:45;14.43;;;5.82;;
69953;SDS011;57276;51.364;12.376;2023-03-11T06:07:47;14.83;;;5.63;;
69953;SDS011;57276;51.364;12.376;2023-03-11T06:13:50;11.25;;;5.18;;
69953;SDS011;57276;51.364;12.376;2023-03-11T06:19:53;11.37;;;4.90;;
69953;SDS011;57276;51.364;12.376;2023-03-11T06:26:05;13.48;;;4.78;;
69953;SDS011;57276;51.364;12.376;2023-03-11T06:32:12;12.70;;;4.57;;
69953;SDS011;57276;51.364;12.376;2023-03-11T06:38:14;13.43;;;4.30;;
69953;SDS011;57276;51.364;12.376;2023-03-11T06:44:15;10.07;;;4.35;;
69953;SDS011;57276;51.364;12.376;2023-03-11T06:50:17;10.53;;;3.83;;
69953;SDS011;57276;51.364;12.376;2023-03-11T06:56:20;14.95;;;5.55;;
69953;SDS011;57276;51.364;12.376;2023-03-11T07:02:27;10.57;;;4.47;;
69953;SDS011;57276;51.364;12.376;2023-03-11T07:08:29;9.50;;;4.17;;
69953;SDS011;57276;51.364;12.376;2023-03-11T07:14:31;10.25;;;3.88;;
69953;SDS011;57276;51.364;12.376;2023-03-11T07:20:33;10.77;;;4.23;;
69953;SDS011;57276;51.364;12.376;2023-03-11T07:26:35;10.07;;;3.80;;
69953;SDS011;57276;51.364;12.376;2023-03-11T07:32:36;12.80;;;4.05;;
69953;SDS011;57276;51.364;12.376;2023-03-11T07:38:38;13.13;;;4.83;;
69953;SDS011;57276;51.364;12.376;2023-03-11T07:44:41;11.18;;;4.28;;
69953;SDS011;57276;51.364;12.376;2023-03-11T07:50:43;9.97;;;3.83;;
69953;SDS011;57276;51.364;12.376;2023-03-11T07:56:44;13.35;;;4.40;;
69953;SDS011;57276;51.364;12.376;2023-03-11T08:02:46;11.40;;;4.55;;
69953;SDS011;57276;51.364;12.376;2023-03-11T08:08:48;14.80;;;4.97;;
69953;SDS011;57276;51.364;12.376;2023-03-11T08:14:50;11.55;;;4.75;;
69953;SDS011;57276;51.364;12.376;2023-03-11T08:20:51;10.73;;;4.07;;
69953;SDS011;57276;51.364;12.376;2023-03-11T08:26:53;12.30;;;4.80;;
69953;SDS011;57276;51.364;12.376;2023-03-11T08:32:57;11.88;;;4.95;;
69953;SDS011;57276;51.364;12.376;2023-03-11T08:38:58;15.83;;;4.53;;
69953;SDS011;57276;51.364;12.376;2023-03-11T08:45:00;9.55;;;3.30;;
69953;SDS011;57276;51.364;12.376;2023-03-11T08:51:07;7.67;;;3.50;;
69953;SDS011;57276;51.364;12.376;2023-03-11T08:57:09;9.55;;;3.22;;
69953;SDS011;57276;51.364;12.376;2023-03-11T09:03:10;8.45;;;3.20;;
69953;SDS011;57276;51.364;12.376;2023-03-11T09:09:13;8.60;;;3.70;;
69953;SDS011;57276;51.364;12.376;2023-03-11T09:15:21;11.68;;;4.00;;
69953;SDS011;57276;51.364;12.376;2023-03-11T09:21:23;8.80;;;3.90;;
69953;SDS011;57276;51.364;12.376;2023-03-11T09:27:25;14.07;;;3.58;;
69953;SDS011;57276;51.364;12.376;2023-03-11T09:33:27;16.60;;;4.45;;
69953;SDS011;57276;51.364;12.376;2023-03-11T09:39:31;13.53;;;5.03;;
69953;SDS011;57276;51.364;12.376;2023-03-11T09:45:33;9.80;;;3.63;;
69953;SDS011;57276;51.364;12.376;2023-03-11T09:51:36;9.10;;;4.07;;
69953;SDS011;57276;51.364;12.376;2023-03-11T09:57:40;8.82;;;4.10;;
69953;SDS011;57276;51.364;12.376;2023-03-11T10:03:41;9.75;;;4.10;;
69953;SDS011;57276;51.364;12.376;2023-03-11T10:09:56;9.30;;;4.10;;
69953;SDS011;57276;51.364;12.376;2023-03-11T10:16:08;11.75;;;4.40;;
69953;SDS011;57276;51.364;12.376;2023-03-11T10:22:15;9.80;;;3.37;;
69953;SDS011;57276;51.364;12.376;2023-03-11T10:28:26;10.55;;;3.88;;
69953;SDS011;57276;51.364;12.376;2023-03-11T10:40:55;8.73;;;3.53;;
69953;SDS011;57276;51.364;12.376;2023-03-11T10:46:58;9.48;;;4.32;;
69953;SDS011;57276;51.364;12.376;2023-03-11T10:53:07;12.10;;;5.07;;
69953;SDS011;57276;51.364;12.376;2023-03-11T10:59:32;9.27;;;4.50;;
69953;SDS011;57276;51.364;12.376;2023-03-11T11:05:34;12.73;;;4.30;;
69953;SDS011;57276;51.364;12.376;2023-03-11T11:11:36;9.30;;;4.27;;
69953;SDS011;57276;51.364;12.376;2023-03-11T11:17:41;11.48;;;4.65;;
69953;SDS011;57276;51.364;12.376;2023-03-11T11:23:48;11.37;;;5.43;;
69953;SDS011;57276;51.364;12.376;2023-03-11T11:36:11;9.18;;;4.30;;
69953;SDS011;57276;51.364;12.376;2023-03-11T11:42:15;11.57;;;4.83;;
69953;SDS011;57276;51.364;12.376;2023-03-11T11:48:19;8.65;;;4.25;;
69953;SDS011;57276;51.364;12.376;2023-03-11T11:54:23;8.53;;;3.80;;
69953;SDS011;57276;51.364;12.376;2023-03-11T12:00:37;8.38;;;3.95;;
69953;SDS011;57276;51.364;12.376;2023-03-11T12:06:46;9.38;;;3.92;;
69953;SDS011;57276;51.364;12.376;2023-03-11T12:31:26;10.48;;;4.07;;
69953;SDS011;57276;51.364;12.376;2023-03-11T12:37:29;9.32;;;3.70;;
69953;SDS011;57276;51.364;12.376;2023-03-11T12:49:37;9.32;;;4.32;;
69953;SDS011;57276;51.364;12.376;2023-03-11T12:55:39;7.77;;;3.57;;
69953;SDS011;57276;51.364;12.376;2023-03-11T13:02:11;8.35;;;3.72;;
69953;SDS011;57276;51.364;12.376;2023-03-11T13:08:19;11.93;;;4.40;;
69953;SDS011;57276;51.364;12.376;2023-03-11T13:14:31;12.87;;;5.40;;
69953;SDS011;57276;51.364;12.376;2023-03-11T13:26:45;10.33;;;4.40;;
69953;SDS011;57276;51.364;12.376;2023-03-11T13:32:52;8.80;;;4.20;;
69953;SDS011;57276;51.364;12.376;2023-03-11T13:39:05;9.23;;;4.93;;
69953;SDS011;57276;51.364;12.376;2023-03-11T13:45:29;9.93;;;4.70;;
69953;SDS011;57276;51.364;12.376;2023-03-11T13:51:35;8.57;;;4.13;;
69953;SDS011;57276;51.364;12.376;2023-03-11T13:57:38;8.00;;;4.20;;
69953;SDS011;57276;51.364;12.376;2023-03-11T14:03:40;8.10;;;4.38;;
69953;SDS011;57276;51.364;12.376;2023-03-11T14:09:42;9.43;;;4.22;;
69953;SDS011;57276;51.364;12.376;2023-03-11T14:15:48;7.97;;;3.50;;
69953;SDS011;57276;51.364;12.376;2023-03-11T14:21:53;6.45;;;3.28;;
69953;SDS011;57276;51.364;12.376;2023-03-11T14:27:57;6.63;;;3.30;;
69953;SDS011;57276;51.364;12.376;2023-03-11T14:34:00;6.35;;;3.00;;
69953;SDS011;57276;51.364;12.376;2023-03-11T14:46:41;7.07;;;3.67;;
69953;SDS011;57276;51.364;12.376;2023-03-11T14:52:49;6.60;;;2.75;;
69953;SDS011;57276;51.364;12.376;2023-03-11T14:59:04;6.03;;;2.73;;
69953;SDS011;57276;51.364;12.376;2023-03-11T15:05:20;5.20;;;2.45;;
69953;SDS011;57276;51.364;12.376;2023-03-11T15:11:24;4.55;;;2.05;;
69953;SDS011;57276;51.364;12.376;2023-03-11T15:17:26;4.20;;;2.10;;
69953;SDS011;57276;51.364;12.376;2023-03-11T15:24:00;5.13;;;2.17;;
69953;SDS011;57276;51.364;12.376;2023-03-11T15:30:13;5.40;;;2.50;;
69953;SDS011;57276;51.364;12.376;2023-03-11T15:36:29;6.70;;;2.53;;
69953;SDS011;57276;51.364;12.376;2023-03-11T15:42:30;6.68;;;2.95;;
69953;SDS011;57276;51.364;12.376;2023-03-11T15:48:32;6.37;;;2.70;;
69953;SDS011;57276;51.364;12.376;2023-03-11T15:54:33;7.85;;;2.63;;
69953;SDS011;57276;51.364;12.376;2023-03-11T16:00:37;7.20;;;2.77;;
69953;SDS011;57276;51.364;12.376;2023-03-11T16:06:40;5.97;;;3.00;;
69953;SDS011;57276;51.364;12.376;2023-03-11T16:12:42;5.60;;;2.28;;
69953;SDS011;57276;51.364;12.376;2023-03-11T16:18:44;7.93;;;3.20;;
69953;SDS011;57276;51.364;12.376;2023-03-11T16:24:49;7.15;;;2.80;;
69953;SDS011;57276;51.364;12.376;2023-03-11T16:30:51;7.97;;;3.40;;
69953;SDS011;57276;51.364;12.376;2023-03-11T16:36:53;11.25;;;3.45;;
69953;SDS011;57276;51.364;12.376;2023-03-11T16:42:56;12.63;;;4.25;;
69953;SDS011;57276;51.364;12.376;2023-03-11T16:48:59;10.67;;;3.60;;
69953;SDS011;57276;51.364;12.376;2023-03-11T16:55:01;19.33;;;6.63;;
69953;SDS011;57276;51.364;12.376;2023-03-11T17:01:03;9.37;;;3.33;;
69953;SDS011;57276;51.364;12.376;2023-03-11T17:07:04;12.38;;;4.25;;
69953;SDS011;57276;51.364;12.376;2023-03-11T17:13:06;8.02;;;3.25;;
69953;SDS011;57276;51.364;12.376;2023-03-11T17:19:08;9.00;;;3.83;;
69953;SDS011;57276;51.364;12.376;2023-03-11T17:25:10;8.93;;;3.75;;
69953;SDS011;57276;51.364;12.376;2023-03-11T17:31:12;10.87;;;3.10;;
69953;SDS011;57276;51.364;12.376;2023-03-11T17:37:14;6.53;;;2.35;;
69953;SDS011;57276;51.364;12.376;2023-03-11T17:43:15;6.05;;;2.08;;
69953;SDS011;57276;51.364;12.376;2023-03-11T17:49:17;7.73;;;2.60;;
69953;SDS011;57276;51.364;12.376;2023-03-11T17:55:21;10.00;;;2.70;;
69953;SDS011;57276;51.364;12.376;2023-03-11T18:01:23;5.80;;;2.73;;
69953;SDS011;57276;51.364;12.376;2023-03-11T18:07:25;9.05;;;3.83;;
69953;SDS011;57276;51.364;12.376;2023-03-11T18:13:27;11.77;;;5.30;;
69953;SDS011;57276;51.364;12.376;2023-03-11T18:19:29;9.37;;;3.63;;
69953;SDS011;57276;51.364;12.376;2023-03-11T18:25:31;8.10;;;3.80;;
69953;SDS011;57276;51.364;12.376;2023-03-11T18:31:32;9.50;;;3.63;;
69953;SDS011;57276;51.364;12.376;2023-03-11T18:37:34;9.82;;;3.95;;
69953;SDS011;57276;51.364;12.376;2023-03-11T18:43:36;8.60;;;4.07;;
69953;SDS011;57276;51.364;12.376;2023-03-11T18:49:39;9.23;;;4.13;;
69953;SDS011;57276;51.364;12.376;2023-03-11T18:55:41;10.85;;;4.18;;
69953;SDS011;57276;51.364;12.376;2023-03-11T19:01:43;10.83;;;4.27;;
69953;SDS011;57276;51.364;12.376;2023-03-11T19:07:45;10.25;;;4.15;;
69953;SDS011;57276;51.364;12.376;2023-03-11T19:13:47;11.60;;;4.15;;
69953;SDS011;57276;51.364;12.376;2023-03-11T19:19:49;10.50;;;4.43;;
69953;SDS011;57276;51.364;12.376;2023-03-11T19:25:50;11.73;;;5.30;;
69953;SDS011;57276;51.364;12.376;2023-03-11T19:32:03;11.43;;;5.33;;
69953;SDS011;57276;51.364;12.376;2023-03-11T19:38:05;12.00;;;6.35;;
69953;SDS011;57276;51.364;12.376;2023-03-11T19:44:06;14.15;;;6.70;;
69953;SDS011;57276;51.364;12.376;2023-03-11T19:50:08;15.87;;;8.00;;
69953;SDS011;57276;51.364;12.376;2023-03-11T19:56:10;18.70;;;8.95;;
69953;SDS011;57276;51.364;12.376;2023-03-11T20:02:12;21.43;;;8.73;;
69953;SDS011;57276;51.364;12.376;2023-03-11T20:08:15;17.15;;;7.68;;
69953;SDS011;57276;51.364;12.376;2023-03-11T20:14:17;12.48;;;6.97;;
69953;SDS011;57276;51.364;12.376;2023-03-11T20:20:19;14.13;;;7.20;;
69953;SDS011;57276;51.364;12.376;2023-03-11T20:26:22;13.90;;;7.43;;
69953;SDS011;57276;51.364;12.376;2023-03-11T20:32:24;15.27;;;7.00;;
69953;SDS011;57276;51.364;12.376;2023-03-11T20:38:26;14.90;;;6.78;;
69953;SDS011;57276;51.364;12.376;2023-03-11T20:44:27;11.57;;;6.20;;
69953;SDS011;57276;51.364;12.376;2023-03-11T20:50:29;15.30;;;6.77;;
69953;SDS011;57276;51.364;12.376;2023-03-11T20:56:31;16.05;;;6.32;;
69953;SDS011;57276;51.364;12.376;2023-03-11T21:02:33;17.67;;;7.53;;
69953;SDS011;57276;51.364;12.376;2023-03-11T21:08:35;14.10;;;6.55;;
69953;SDS011;57276;51.364;12.376;2023-03-11T21:14:36;12.82;;;6.07;;
69953;SDS011;57276;51.364;12.376;2023-03-11T21:20:38;10.50;;;5.10;;
69953;SDS011;57276;51.364;12.376;2023-03-11T21:26:40;11.73;;;4.93;;
69953;SDS011;57276;51.364;12.376;2023-03-11T21:32:42;14.80;;;5.43;;
69953;SDS011;57276;51.364;12.376;2023-03-11T21:38:45;16.48;;;6.10;;
69953;SDS011;57276;51.364;12.376;2023-03-11T21:44:46;10.57;;;4.72;;
69953;SDS011;57276;51.364;12.376;2023-03-11T21:50:50;11.53;;;4.33;;
69953;SDS011;57276;51.364;12.376;2023-03-11T21:56:52;9.20;;;4.07;;
69953;SDS011;57276;51.364;12.376;2023-03-11T22:02:53;7.93;;;3.67;;
69953;SDS011;57276;51.364;12.376;2023-03-11T22:08:55;6.97;;;2.90;;
69953;SDS011;57276;51.364;12.376;2023-03-11T22:14:57;8.88;;;3.00;;
69953;SDS011;57276;51.364;12.376;2023-03-11T22:20:59;7.10;;;2.97;;
69953;SDS011;57276;51.364;12.376;2023-03-11T22:27:00;9.20;;;3.42;;
69953;SDS011;57276;51.364;12.376;2023-03-11T22:33:02;9.93;;;3.00;;
69953;SDS011;57276;51.364;12.376;2023-03-11T22:39:04;8.93;;;3.03;;
69953;SDS011;57276;51.364;12.376;2023-03-11T22:45:06;7.78;;;3.08;;
69953;SDS011;57276;51.364;12.376;2023-03-11T22:51:07;8.23;;;2.60;;
69953;SDS011;57276;51.364;12.376;2023-03-11T22:57:09;7.20;;;2.75;;
69953;SDS011;57276;51.364;12.376;2023-03-11T23:03:10;6.43;;;2.90;;
69953;SDS011;57276;51.364;12.376;2023-03-11T23:09:12;6.53;;;2.13;;
69953;SDS011;57276;51.364;12.376;2023-03-11T23:15:15;6.60;;;2.80;;
69953;SDS011;57276;51.364;12.376;2023-03-11T23:27:18;6.10;;;2.50;;
69953;SDS011;57276;51.364;12.376;2023-03-11T23:33:20;8.53;;;3.37;;
69953;SDS011;57276;51.364;12.376;2023-03-11T23:39:21;6.93;;;2.60;;
69953;SDS011;57276;51.364;12.376;2023-03-11T23:45:23;6.47;;;2.95;;
69953;SDS011;57276;51.364;12.376;2023-03-11T23:51:24;6.50;;;2.97;;
69953;SDS011;57276;51.364;12.376;2023-03-11T23:57:26;6.72;;;2.90;;
